createdAt,value
2022-10-17T00:02:51.615Z,99.41
2022-10-17T00:05:54.909Z,99.34
2022-10-17T00:08:58.122Z,99.61
2022-10-17T00:12:02.663Z,99.52
2022-10-17T00:15:08.304Z,99.94
2022-10-17T00:18:12.647Z,100.00
2022-10-17T00:21:19.848Z,99.39
2022-10-17T00:24:23.921Z,98.74
2022-10-17T00:27:27.293Z,98.26
2022-10-17T00:30:30.375Z,98.46
2022-10-17T00:33:35.756Z,98.47
2022-10-17T00:36:38.616Z,98.45
2022-10-17T00:39:41.305Z,98.65
2022-10-17T00:42:44.393Z,98.97
2022-10-17T00:45:47.364Z,99.14
2022-10-17T00:48:53.643Z,98.96
2022-10-17T00:51:58.560Z,98.47
2022-10-17T00:55:07.361Z,98.51
2022-10-17T00:58:10.792Z,98.54
2022-10-17T01:01:13.625Z,98.96
2022-10-17T01:04:18.887Z,98.96
2022-10-17T01:07:22.070Z,99.44
2022-10-17T01:10:30.940Z,99.24
2022-10-17T01:13:40.811Z,99.34
2022-10-17T01:16:52.278Z,98.25
2022-10-17T01:20:37.035Z,98.49
2022-10-17T01:24:18.751Z,98.88
2022-10-17T01:27:35.667Z,98.83
2022-10-17T01:31:00.600Z,98.84
2022-10-17T01:34:12.407Z,98.75
2022-10-17T01:37:20.100Z,99.28
2022-10-17T01:40:31.660Z,99.23
2022-10-17T01:43:40.505Z,99.10
2022-10-17T01:46:50.708Z,99.22
2022-10-17T01:50:01.035Z,99.19
2022-10-17T01:53:10.072Z,99.08
2022-10-17T01:56:15.734Z,99.02
2022-10-17T01:59:22.678Z,98.74
2022-10-17T02:02:28.582Z,99.06
2022-10-17T02:05:37.731Z,98.53
2022-10-17T02:08:45.495Z,98.38
2022-10-17T02:12:12.975Z,98.90
2022-10-17T02:15:29.597Z,98.65
2022-10-17T02:18:48.586Z,98.64
2022-10-17T02:22:00.162Z,99.22
2022-10-17T02:25:11.297Z,98.95
2022-10-17T02:28:22.078Z,99.53
2022-10-17T02:31:30.203Z,100.00
2022-10-17T02:34:38.705Z,100.00
2022-10-17T02:37:43.351Z,100.00
2022-10-17T02:40:48.430Z,100.00
2022-10-17T02:43:55.640Z,100.00
2022-10-17T02:47:10.317Z,99.83
2022-10-17T02:50:15.186Z,99.36
2022-10-17T02:53:24.545Z,98.17
2022-10-17T02:56:30.382Z,98.18
2022-10-17T02:59:36.768Z,98.23
2022-10-17T03:02:42.362Z,99.05
2022-10-17T03:05:46.890Z,99.49
2022-10-17T03:08:49.799Z,99.79
2022-10-17T03:11:52.874Z,99.93
2022-10-17T03:14:55.738Z,99.92
2022-10-17T03:17:58.582Z,99.55
2022-10-17T03:21:02.858Z,100.00
2022-10-17T03:24:09.145Z,100.00
2022-10-17T03:27:12.490Z,100.00
2022-10-17T03:30:15.313Z,99.60
2022-10-17T03:33:18.241Z,98.54
2022-10-17T03:36:22.938Z,98.48
2022-10-17T03:39:26.052Z,98.07
2022-10-17T03:42:28.992Z,97.71
2022-10-17T03:45:31.722Z,98.01
2022-10-17T03:48:35.267Z,98.58
2022-10-17T03:51:42.903Z,98.59
2022-10-17T03:54:47.230Z,97.56
2022-10-17T03:57:50.111Z,97.24
2022-10-17T04:00:53.414Z,97.54
2022-10-17T04:03:57.698Z,98.00
2022-10-17T04:07:02.235Z,98.13
2022-10-17T04:10:05.315Z,97.75
2022-10-17T04:13:08.043Z,98.34
2022-10-17T04:16:13.888Z,98.72
2022-10-17T04:19:17.040Z,99.05
2022-10-17T04:22:21.513Z,99.50
2022-10-17T04:25:24.354Z,99.54
2022-10-17T04:28:28.019Z,99.57
2022-10-17T04:31:31.193Z,98.99
2022-10-17T04:34:34.062Z,99.13
2022-10-17T04:37:38.576Z,98.91
2022-10-17T04:40:42.599Z,98.96
2022-10-17T04:43:48.625Z,99.01
2022-10-17T04:46:54.010Z,99.17
2022-10-17T04:49:56.854Z,98.98
2022-10-17T04:53:01.174Z,98.80
2022-10-17T04:56:09.637Z,99.28
2022-10-17T04:59:12.510Z,98.90
2022-10-17T05:02:15.420Z,98.96
2022-10-17T05:05:18.284Z,98.59
2022-10-17T05:08:22.567Z,98.96
2022-10-17T05:11:27.647Z,98.92
2022-10-17T05:14:30.534Z,98.95
2022-10-17T05:17:33.223Z,99.60
2022-10-17T05:20:36.005Z,98.93
2022-10-17T05:23:40.215Z,99.60
2022-10-17T05:26:43.064Z,99.27
2022-10-17T05:29:46.178Z,99.39
2022-10-17T05:32:49.534Z,99.40
2022-10-17T05:35:52.426Z,99.57
2022-10-17T05:38:56.544Z,99.41
2022-10-17T05:41:59.371Z,100.00
2022-10-17T05:45:02.558Z,100.00
2022-10-17T05:48:06.252Z,100.00
2022-10-17T05:51:10.635Z,100.00
2022-10-17T05:54:15.015Z,100.00
2022-10-17T05:57:17.778Z,100.00
2022-10-17T06:00:21.518Z,100.00
2022-10-17T06:03:24.516Z,100.00
2022-10-17T06:06:27.390Z,100.00
2022-10-17T06:09:31.813Z,99.12
2022-10-17T06:12:34.678Z,95.42
2022-10-17T06:15:37.605Z,90.73
2022-10-17T06:18:40.545Z,84.18
2022-10-17T06:21:43.391Z,80.64
2022-10-17T06:24:47.481Z,78.36
2022-10-17T06:27:50.502Z,76.75
2022-10-17T06:30:53.437Z,76.84
2022-10-17T06:33:56.337Z,75.03
2022-10-17T06:36:59.573Z,73.28
2022-10-17T06:40:03.824Z,74.07
2022-10-17T06:43:07.483Z,75.92
2022-10-17T06:46:11.095Z,78.09
2022-10-17T06:49:14.067Z,79.74
2022-10-17T06:52:17.678Z,81.96
2022-10-17T06:55:23.269Z,84.28
2022-10-17T06:58:26.195Z,85.92
2022-10-17T07:01:29.940Z,86.85
2022-10-17T07:04:33.002Z,87.59
2022-10-17T07:07:38.853Z,88.44
2022-10-17T07:10:45.886Z,89.06
2022-10-17T07:13:49.234Z,90.42
2022-10-17T07:16:51.966Z,91.25
2022-10-17T07:19:54.693Z,91.88
2022-10-17T07:22:57.815Z,92.03
2022-10-17T07:26:03.651Z,92.56
2022-10-17T07:29:07.458Z,93.00
2022-10-17T07:32:10.290Z,93.15
2022-10-17T07:35:13.399Z,93.42
2022-10-17T07:38:16.200Z,93.48
2022-10-17T07:41:21.966Z,93.16
2022-10-17T07:44:29.102Z,93.30
2022-10-17T07:47:35.651Z,93.29
2022-10-17T07:50:38.591Z,93.11
2022-10-17T07:53:46.394Z,92.86
2022-10-17T07:56:53.276Z,92.97
2022-10-17T07:59:56.002Z,92.44
2022-10-17T08:02:58.762Z,92.23
2022-10-17T08:06:02.620Z,92.47
2022-10-17T08:09:05.686Z,91.60
2022-10-17T08:12:10.260Z,91.04
2022-10-17T08:15:13.054Z,92.19
2022-10-17T08:18:16.084Z,92.35
2022-10-17T08:21:18.855Z,92.33
2022-10-17T08:24:22.096Z,91.48
2022-10-17T08:27:27.968Z,91.11
2022-10-17T08:30:31.143Z,91.02
2022-10-17T08:33:34.269Z,90.07
2022-10-17T08:36:37.289Z,89.67
2022-10-17T08:39:40.276Z,89.52
2022-10-17T08:43:22.111Z,88.10
2022-10-17T08:46:32.546Z,87.61
2022-10-17T08:49:42.887Z,87.71
2022-10-17T08:52:50.443Z,86.11
2022-10-17T08:55:54.877Z,86.17
2022-10-17T08:58:59.784Z,84.85
2022-10-17T09:02:10.579Z,85.18
2022-10-17T09:05:41.073Z,85.44
2022-10-17T09:08:54.037Z,84.82
2022-10-17T09:12:12.572Z,82.66
2022-10-17T09:15:32.696Z,82.22
2022-10-17T09:18:38.662Z,81.77
2022-10-17T09:21:45.894Z,81.34
2022-10-17T09:24:53.449Z,81.29
2022-10-17T09:28:04.462Z,79.30
2022-10-17T09:31:14.569Z,75.87
2022-10-17T09:34:20.365Z,76.95
2022-10-17T09:37:32.086Z,75.56
2022-10-17T09:40:36.044Z,77.48
2022-10-17T09:43:40.587Z,77.46
2022-10-17T09:46:54.800Z,76.09
2022-10-17T09:49:57.852Z,76.16
2022-10-17T09:53:08.495Z,75.13
2022-10-17T09:56:16.104Z,74.70
2022-10-17T09:59:32.836Z,72.57
2022-10-17T10:02:40.777Z,72.36
2022-10-17T10:05:58.636Z,70.94
2022-10-17T10:09:03.534Z,71.00
2022-10-17T10:12:16.916Z,70.58
2022-10-17T10:15:39.019Z,72.14
2022-10-17T10:18:45.505Z,71.83
2022-10-17T10:21:57.208Z,72.88
2022-10-17T10:25:10.082Z,72.24
2022-10-17T10:28:12.984Z,71.20
2022-10-17T10:31:15.832Z,71.15
2022-10-17T10:34:24.016Z,71.17
2022-10-17T10:37:30.319Z,72.01
2022-10-17T10:40:38.876Z,71.60
2022-10-17T10:43:44.516Z,70.54
2022-10-17T10:46:47.360Z,69.32
2022-10-17T10:49:55.165Z,68.78
2022-10-17T10:53:13.064Z,67.63
2022-10-17T10:56:20.949Z,65.59
2022-10-17T10:59:28.620Z,66.27
2022-10-17T11:02:37.707Z,61.29
2022-10-17T11:05:45.130Z,61.63
2022-10-17T11:08:51.435Z,63.37
2022-10-17T11:12:01.332Z,62.48
2022-10-17T11:15:15.541Z,57.23
2022-10-17T11:18:24.718Z,56.38
2022-10-17T11:21:38.598Z,53.10
2022-10-17T11:24:45.840Z,53.66
2022-10-17T11:27:48.787Z,53.86
2022-10-17T11:30:56.787Z,56.90
2022-10-17T11:34:02.538Z,55.30
2022-10-17T11:37:15.903Z,51.78
2022-10-17T11:40:31.148Z,51.36
2022-10-17T11:43:39.863Z,50.63
2022-10-17T11:46:46.576Z,48.48
2022-10-17T11:49:54.240Z,47.92
2022-10-17T11:53:04.300Z,47.80
2022-10-17T11:56:11.221Z,47.41
2022-10-17T11:59:40.956Z,47.74
2022-10-17T12:02:51.756Z,46.83
2022-10-17T12:06:00.893Z,48.65
2022-10-17T12:09:11.714Z,47.90
2022-10-17T12:12:27.040Z,47.49
2022-10-17T12:15:32.154Z,49.21
2022-10-17T12:18:34.920Z,47.53
2022-10-17T12:21:56.551Z,46.86
2022-10-17T12:25:02.892Z,46.73
2022-10-17T12:28:18.178Z,46.37
2022-10-17T12:31:29.676Z,45.58
2022-10-17T12:34:35.623Z,46.52
2022-10-17T12:38:11.875Z,45.05
2022-10-17T12:41:16.558Z,47.08
2022-10-17T12:44:37.904Z,45.42
2022-10-17T12:47:40.723Z,46.05
2022-10-17T12:51:30.675Z,48.44
2022-10-17T12:54:27.548Z,54.12
2022-10-17T12:57:38.711Z,55.23
2022-10-17T13:01:05.281Z,56.83
2022-10-17T13:04:12.575Z,56.55
2022-10-17T13:07:20.686Z,56.27
2022-10-17T13:13:42.481Z,57.16
2022-10-17T13:16:53.165Z,56.58
2022-10-17T13:19:57.256Z,57.57
2022-10-17T13:23:01.083Z,55.95
2022-10-17T13:26:13.784Z,55.99
2022-10-17T13:29:19.281Z,55.41
2022-10-17T13:32:21.970Z,55.63
2022-10-17T13:35:55.403Z,56.38
2022-10-17T13:38:52.892Z,55.79
2022-10-17T13:41:57.932Z,55.83
2022-10-17T13:45:03.448Z,56.37
2022-10-17T13:48:17.192Z,54.17
2022-10-17T13:51:20.195Z,54.07
2022-10-17T13:54:42.849Z,54.09
2022-10-17T13:57:45.643Z,52.78
2022-10-17T14:00:50.781Z,52.56
2022-10-17T14:04:07.803Z,52.81
2022-10-17T14:07:29.373Z,53.45
2022-10-17T14:10:36.850Z,54.38
2022-10-17T14:13:40.247Z,54.50
2022-10-17T14:16:45.797Z,53.28
2022-10-17T14:20:14.125Z,53.35
2022-10-17T14:23:38.539Z,53.11
2022-10-17T14:26:49.830Z,52.00
2022-10-17T14:29:55.097Z,52.11
2022-10-17T14:33:03.416Z,53.54
2022-10-17T14:36:06.513Z,54.39
2022-10-17T14:39:20.091Z,54.35
2022-10-17T14:42:24.335Z,55.17
2022-10-17T14:45:30.475Z,55.73
2022-10-17T14:48:34.840Z,56.23
2022-10-17T14:51:50.320Z,58.12
2022-10-17T14:55:01.911Z,58.34
2022-10-17T14:58:18.208Z,59.37
2022-10-17T15:01:21.094Z,59.48
2022-10-17T15:04:25.435Z,61.34
2022-10-17T15:07:29.382Z,63.67
2022-10-17T15:10:35.195Z,62.04
2022-10-17T15:13:43.280Z,64.16
2022-10-17T15:16:48.389Z,65.95
2022-10-17T15:19:52.532Z,68.77
2022-10-17T15:22:55.587Z,69.26
2022-10-17T15:25:58.469Z,69.49
2022-10-17T15:29:01.778Z,71.82
2022-10-17T15:32:04.483Z,71.52
2022-10-17T15:35:10.204Z,72.74
2022-10-17T15:38:16.922Z,74.55
2022-10-17T15:41:20.523Z,75.50
2022-10-17T15:44:23.573Z,76.81
2022-10-17T15:47:31.314Z,77.36
2022-10-17T15:50:36.007Z,77.88
2022-10-17T15:53:38.986Z,77.83
2022-10-17T15:56:43.244Z,77.63
2022-10-17T15:59:47.828Z,78.91
2022-10-17T16:02:51.774Z,79.93
2022-10-17T16:05:56.146Z,80.75
2022-10-17T16:08:59.740Z,81.77
2022-10-17T16:12:02.948Z,81.64
2022-10-17T16:15:07.248Z,82.13
2022-10-17T16:18:10.391Z,82.64
2022-10-17T16:21:16.684Z,83.15
2022-10-17T16:24:19.540Z,83.36
2022-10-17T16:27:22.472Z,84.13
2022-10-17T16:30:26.920Z,84.51
2022-10-17T16:33:31.347Z,84.78
2022-10-17T16:36:36.238Z,84.86
2022-10-17T16:39:39.091Z,85.19
2022-10-17T16:42:41.963Z,85.63
2022-10-17T16:45:44.770Z,86.25
2022-10-17T16:48:49.021Z,86.57
2022-10-17T16:51:53.588Z,86.45
2022-10-17T16:54:56.392Z,86.79
2022-10-17T16:58:00.117Z,86.58
2022-10-17T17:01:03.861Z,86.64
2022-10-17T17:04:06.766Z,87.17
2022-10-17T17:07:12.039Z,87.19
2022-10-17T17:10:15.295Z,87.55
2022-10-17T17:13:19.339Z,87.95
2022-10-17T17:16:24.547Z,88.41
2022-10-17T17:19:27.506Z,88.44
2022-10-17T17:22:31.623Z,88.92
2022-10-17T17:25:35.682Z,89.08
2022-10-17T17:28:39.679Z,88.88
2022-10-17T17:31:42.498Z,89.04
2022-10-17T17:34:45.388Z,89.08
2022-10-17T17:37:49.453Z,89.26
2022-10-17T17:40:52.641Z,89.75
2022-10-17T17:43:55.886Z,90.02
2022-10-17T17:46:59.262Z,90.35
2022-10-17T17:50:03.341Z,90.59
2022-10-17T17:53:08.518Z,90.93
2022-10-17T17:56:14.104Z,90.33
2022-10-17T17:59:17.436Z,90.64
2022-10-17T18:02:20.348Z,91.04
2022-10-17T18:05:23.478Z,91.45
2022-10-17T18:08:27.712Z,91.34
2022-10-17T18:11:31.074Z,91.91
2022-10-17T18:14:33.794Z,92.18
2022-10-17T18:17:37.800Z,91.98
2022-10-17T18:20:42.202Z,92.14
2022-10-17T18:23:48.472Z,92.17
2022-10-17T18:26:54.022Z,92.23
2022-10-17T18:30:00.170Z,92.01
2022-10-17T18:33:03.166Z,91.94
2022-10-17T18:36:08.085Z,92.52
2022-10-17T18:39:12.666Z,92.71
2022-10-17T18:42:15.631Z,92.35
2022-10-17T18:45:18.539Z,92.30
2022-10-17T18:48:21.705Z,92.20
2022-10-17T18:51:26.602Z,92.66
2022-10-17T18:54:33.347Z,92.31
2022-10-17T18:57:36.258Z,92.93
2022-10-17T19:00:39.058Z,93.37
2022-10-17T19:03:42.605Z,93.17
2022-10-17T19:06:45.711Z,93.43
2022-10-17T19:09:50.655Z,93.71
2022-10-17T19:12:53.988Z,93.42
2022-10-17T19:15:56.912Z,93.14
2022-10-17T19:19:02.368Z,93.59
2022-10-17T19:22:05.640Z,93.89
2022-10-17T19:25:10.768Z,93.97
2022-10-17T19:28:13.627Z,94.40
2022-10-17T19:31:18.009Z,94.52
2022-10-17T19:34:21.813Z,94.42
2022-10-17T19:37:25.338Z,94.17
2022-10-17T19:40:29.770Z,94.67
2022-10-17T19:43:33.001Z,94.65
2022-10-17T19:46:36.105Z,94.83
2022-10-17T19:49:39.580Z,94.76
2022-10-17T19:52:42.552Z,95.28
2022-10-17T19:55:47.294Z,95.16
2022-10-17T19:58:51.143Z,95.18
2022-10-17T20:01:53.909Z,95.07
2022-10-17T20:05:13.839Z,95.71
2022-10-17T20:11:36.064Z,94.88
2022-10-17T20:14:41.171Z,94.99
2022-10-17T20:17:44.033Z,95.20
2022-10-17T20:20:46.948Z,94.95
2022-10-17T20:23:50.823Z,95.68
2022-10-17T20:26:55.117Z,95.67
2022-10-17T20:30:01.746Z,95.49
2022-10-17T20:33:04.594Z,95.35
2022-10-17T20:36:08.707Z,95.25
2022-10-17T20:39:12.558Z,95.50
2022-10-17T20:42:16.946Z,96.02
2022-10-17T20:45:32.009Z,96.30
2022-10-17T20:48:42.964Z,95.93
2022-10-17T20:51:46.358Z,95.89
2022-10-17T20:54:49.141Z,95.92
2022-10-17T20:57:55.112Z,96.26
2022-10-17T21:00:58.068Z,96.18
2022-10-17T21:04:21.239Z,95.94
2022-10-17T21:07:25.291Z,96.13
2022-10-17T21:10:35.257Z,96.11
2022-10-17T21:13:43.935Z,96.07
2022-10-17T21:16:46.897Z,96.45
2022-10-17T21:19:49.859Z,96.43
2022-10-17T21:22:52.613Z,96.15
2022-10-17T21:25:55.379Z,96.15
2022-10-17T21:29:03.013Z,95.92
2022-10-17T21:32:14.645Z,96.30
2022-10-17T21:35:28.143Z,96.51
2022-10-17T21:38:31.093Z,96.56
2022-10-17T21:41:34.399Z,98.27
2022-10-17T21:44:38.678Z,98.46
2022-10-17T21:47:41.788Z,97.75
2022-10-17T21:50:48.532Z,96.40
2022-10-17T21:53:52.225Z,96.43
2022-10-17T21:56:55.082Z,96.96
2022-10-17T21:59:59.241Z,97.04
2022-10-17T22:03:05.869Z,97.20
2022-10-17T22:06:37.692Z,97.54
2022-10-17T22:09:32.527Z,97.47
2022-10-17T22:12:35.320Z,97.47
2022-10-17T22:15:39.393Z,97.18
2022-10-17T22:18:43.241Z,97.33
2022-10-17T22:21:46.336Z,97.66
2022-10-17T22:24:49.102Z,97.33
2022-10-17T22:27:51.979Z,96.92
2022-10-17T22:30:56.274Z,97.17
2022-10-17T22:33:59.111Z,97.32
2022-10-17T22:37:01.904Z,97.00
2022-10-17T22:40:05.578Z,97.00
2022-10-17T22:43:08.882Z,97.06
2022-10-17T22:46:15.854Z,97.23
2022-10-17T22:49:19.039Z,96.44
2022-10-17T22:52:21.887Z,96.68
2022-10-17T22:55:24.985Z,96.36
2022-10-17T22:58:28.534Z,96.73
2022-10-17T23:01:32.806Z,96.96
2022-10-17T23:04:35.978Z,97.31
2022-10-17T23:07:38.668Z,97.27
2022-10-17T23:10:41.996Z,97.42
2022-10-17T23:26:53.337Z,98.21
2022-10-17T23:29:56.171Z,98.64
2022-10-17T23:32:59.030Z,98.67
2022-10-17T23:36:05.211Z,98.45
2022-10-17T23:39:08.605Z,97.53
2022-10-17T23:42:12.806Z,97.50
2022-10-17T23:45:16.055Z,98.11
2022-10-17T23:48:18.746Z,98.06
2022-10-17T23:51:22.445Z,98.45
2022-10-17T23:54:25.531Z,99.11
2022-10-17T23:57:30.420Z,100.00
